sensor_id;sensor_type;location;lat;lon;timestamp;pressure;altitude;pressure_sealevel;temperature;humidity
32298;BME280;18782;48.984;8.548;2023-04-09T00:00:28;100659.91;;;9.71;76.66
32298;BME280;18782;48.984;8.548;2023-04-09T00:02:56;100656.41;;;9.68;77.42
32298;BME280;18782;48.984;8.548;2023-04-09T00:05:24;100655.41;;;9.65;77.70
32298;BME280;18782;48.984;8.548;2023-04-09T00:07:51;100659.56;;;9.61;78.00
32298;BME280;18782;48.984;8.548;2023-04-09T00:10:19;100654.44;;;9.61;78.14
32298;BME280;18782;48.984;8.548;2023-04-09T00:12:47;100654.34;;;9.60;77.78
32298;BME280;18782;48.984;8.548;2023-04-09T00:15:15;100650.78;;;9.56;77.87
32298;BME280;18782;48.984;8.548;2023-04-09T00:17:57;100649.06;;;9.55;78.26
32298;BME280;18782;48.984;8.548;2023-04-09T00:20:25;100647.16;;;9.51;78.76
32298;BME280;18782;48.984;8.548;2023-04-09T00:22:53;100651.34;;;9.49;78.69
32298;BME280;18782;48.984;8.548;2023-04-09T00:25:21;100656.50;;;9.49;78.26
32298;BME280;18782;48.984;8.548;2023-04-09T00:27:49;100645.41;;;9.50;75.95
32298;BME280;18782;48.984;8.548;2023-04-09T00:30:17;100649.59;;;9.48;75.43
32298;BME280;18782;48.984;8.548;2023-04-09T00:32:44;100641.88;;;9.48;76.43
32298;BME280;18782;48.984;8.548;2023-04-09T00:35:13;100642.75;;;9.49;76.73
32298;BME280;18782;48.984;8.548;2023-04-09T00:37:43;100643.63;;;9.49;76.80
32298;BME280;18782;48.984;8.548;2023-04-09T00:40:11;100639.28;;;9.47;77.02
32298;BME280;18782;48.984;8.548;2023-04-09T00:42:38;100636.81;;;9.50;77.49
32298;BME280;18782;48.984;8.548;2023-04-09T00:45:07;100642.84;;;9.50;78.40
32298;BME280;18782;48.984;8.548;2023-04-09T00:47:35;100644.50;;;9.50;78.25
32298;BME280;18782;48.984;8.548;2023-04-09T00:50:03;100641.94;;;9.50;76.73
32298;BME280;18782;48.984;8.548;2023-04-09T00:52:33;100648.69;;;9.46;76.71
32298;BME280;18782;48.984;8.548;2023-04-09T00:55:03;100650.28;;;9.44;76.40
32298;BME280;18782;48.984;8.548;2023-04-09T00:57:31;100648.53;;;9.43;76.50
32298;BME280;18782;48.984;8.548;2023-04-09T00:59:59;100653.69;;;9.43;77.21
32298;BME280;18782;48.984;8.548;2023-04-09T01:02:27;100649.56;;;9.47;76.39
32298;BME280;18782;48.984;8.548;2023-04-09T01:04:56;100647.84;;;9.47;75.77
32298;BME280;18782;48.984;8.548;2023-04-09T01:07:33;100652.16;;;9.48;76.17
32298;BME280;18782;48.984;8.548;2023-04-09T01:10:12;100653.81;;;9.46;76.16
32298;BME280;18782;48.984;8.548;2023-04-09T01:12:52;100651.25;;;9.46;76.01
32298;BME280;18782;48.984;8.548;2023-04-09T01:15:24;100656.28;;;9.45;75.63
32298;BME280;18782;48.984;8.548;2023-04-09T01:17:59;100651.00;;;9.40;75.46
32298;BME280;18782;48.984;8.548;2023-04-09T01:20:32;100649.22;;;9.39;76.05
32298;BME280;18782;48.984;8.548;2023-04-09T01:23:10;100650.03;;;9.38;76.11
32298;BME280;18782;48.984;8.548;2023-04-09T01:25:52;100645.78;;;9.38;75.99
32298;BME280;18782;48.984;8.548;2023-04-09T01:28:26;100650.03;;;9.38;76.45
32298;BME280;18782;48.984;8.548;2023-04-09T01:31:00;100643.97;;;9.36;76.59
32298;BME280;18782;48.984;8.548;2023-04-09T01:33:29;100640.53;;;9.35;76.40
32298;BME280;18782;48.984;8.548;2023-04-09T01:35:58;100656.81;;;9.36;76.60
32298;BME280;18782;48.984;8.548;2023-04-09T01:38:26;100648.44;;;9.40;76.38
32298;BME280;18782;48.984;8.548;2023-04-09T01:40:55;100651.78;;;9.39;75.52
32298;BME280;18782;48.984;8.548;2023-04-09T01:43:25;100647.63;;;9.41;75.26
32298;BME280;18782;48.984;8.548;2023-04-09T01:45:54;100646.66;;;9.39;75.11
32298;BME280;18782;48.984;8.548;2023-04-09T01:48:22;100648.28;;;9.37;75.09
32298;BME280;18782;48.984;8.548;2023-04-09T01:50:50;100656.69;;;9.33;75.59
32298;BME280;18782;48.984;8.548;2023-04-09T01:53:18;100652.44;;;9.33;75.61
32298;BME280;18782;48.984;8.548;2023-04-09T01:55:46;100651.56;;;9.33;75.73
32298;BME280;18782;48.984;8.548;2023-04-09T01:58:14;100653.19;;;9.31;75.06
32298;BME280;18782;48.984;8.548;2023-04-09T02:00:46;100642.66;;;9.25;75.35
32298;BME280;18782;48.984;8.548;2023-04-09T02:03:17;100652.94;;;9.25;74.87
32298;BME280;18782;48.984;8.548;2023-04-09T02:05:53;100647.66;;;9.22;75.54
32298;BME280;18782;48.984;8.548;2023-04-09T02:08:22;100651.06;;;9.21;75.69
32298;BME280;18782;48.984;8.548;2023-04-09T02:10:55;100657.94;;;9.22;76.79
32298;BME280;18782;48.984;8.548;2023-04-09T02:13:24;100647.66;;;9.22;76.90
32298;BME280;18782;48.984;8.548;2023-04-09T02:15:57;100652.81;;;9.22;76.20
32298;BME280;18782;48.984;8.548;2023-04-09T02:18:26;100646.75;;;9.20;75.21
32298;BME280;18782;48.984;8.548;2023-04-09T02:20:54;100645.69;;;9.14;76.53
32298;BME280;18782;48.984;8.548;2023-04-09T02:23:23;100656.00;;;9.16;76.69
32298;BME280;18782;48.984;8.548;2023-04-09T02:25:52;100650.81;;;9.14;77.56
32298;BME280;18782;48.984;8.548;2023-04-09T02:28:20;100647.28;;;9.12;78.11
32298;BME280;18782;48.984;8.548;2023-04-09T02:30:50;100647.47;;;9.17;78.10
32298;BME280;18782;48.984;8.548;2023-04-09T02:33:19;100644.03;;;9.17;77.90
32298;BME280;18782;48.984;8.548;2023-04-09T02:35:47;100643.31;;;9.19;77.96
32298;BME280;18782;48.984;8.548;2023-04-09T02:38:15;100649.19;;;9.17;77.56
32298;BME280;18782;48.984;8.548;2023-04-09T02:40:42;100642.34;;;9.17;77.81
32298;BME280;18782;48.984;8.548;2023-04-09T02:43:10;100646.50;;;9.13;77.28
32298;BME280;18782;48.984;8.548;2023-04-09T02:45:37;100643.94;;;9.13;76.81
32298;BME280;18782;48.984;8.548;2023-04-09T02:48:05;100648.09;;;9.11;76.96
32298;BME280;18782;48.984;8.548;2023-04-09T02:50:35;100641.91;;;9.06;77.04
32298;BME280;18782;48.984;8.548;2023-04-09T02:53:03;100642.84;;;9.08;76.74
32298;BME280;18782;48.984;8.548;2023-04-09T02:55:30;100650.56;;;9.08;77.21
32298;BME280;18782;48.984;8.548;2023-04-09T02:57:58;100645.28;;;9.05;78.02
32298;BME280;18782;48.984;8.548;2023-04-09T03:00:26;100650.19;;;8.99;77.84
32298;BME280;18782;48.984;8.548;2023-04-09T03:02:54;100658.81;;;9.01;77.87
32298;BME280;18782;48.984;8.548;2023-04-09T03:05:22;100645.78;;;8.97;78.08
32298;BME280;18782;48.984;8.548;2023-04-09T03:07:52;100640.72;;;8.98;77.65
32298;BME280;18782;48.984;8.548;2023-04-09T03:10:21;100635.44;;;8.95;77.39
32298;BME280;18782;48.984;8.548;2023-04-09T03:12:49;100641.25;;;8.91;77.35
32298;BME280;18782;48.984;8.548;2023-04-09T03:15:16;100639.38;;;8.87;77.45
32298;BME280;18782;48.984;8.548;2023-04-09T03:17:44;100639.25;;;8.84;77.09
32298;BME280;18782;48.984;8.548;2023-04-09T03:20:12;100639.13;;;8.81;77.43
32298;BME280;18782;48.984;8.548;2023-04-09T03:22:40;100637.50;;;8.83;78.32
32298;BME280;18782;48.984;8.548;2023-04-09T03:25:27;100635.72;;;8.82;78.47
32298;BME280;18782;48.984;8.548;2023-04-09T03:27:55;100637.22;;;8.77;79.38
32298;BME280;18782;48.984;8.548;2023-04-09T03:30:32;100632.66;;;8.70;79.58
32298;BME280;18782;48.984;8.548;2023-04-09T03:33:02;100635.00;;;8.65;80.33
32298;BME280;18782;48.984;8.548;2023-04-09T03:35:34;100629.63;;;8.59;79.91
32298;BME280;18782;48.984;8.548;2023-04-09T03:38:02;100634.69;;;8.57;80.28
32298;BME280;18782;48.984;8.548;2023-04-09T03:40:32;100632.81;;;8.53;79.44
32298;BME280;18782;48.984;8.548;2023-04-09T03:42:59;100633.47;;;8.49;79.72
32298;BME280;18782;48.984;8.548;2023-04-09T03:45:28;100635.78;;;8.43;81.01
32298;BME280;18782;48.984;8.548;2023-04-09T03:48:09;100635.50;;;8.37;81.63
32298;BME280;18782;48.984;8.548;2023-04-09T03:50:37;100638.91;;;8.36;82.25
32298;BME280;18782;48.984;8.548;2023-04-09T03:53:08;100637.56;;;8.26;82.89
32298;BME280;18782;48.984;8.548;2023-04-09T03:55:37;100638.19;;;8.21;83.02
32298;BME280;18782;48.984;8.548;2023-04-09T03:58:13;100639.22;;;8.06;83.17
32298;BME280;18782;48.984;8.548;2023-04-09T04:00:41;100650.03;;;7.99;83.43
32298;BME280;18782;48.984;8.548;2023-04-09T04:03:24;100644.69;;;7.95;82.98
32298;BME280;18782;48.984;8.548;2023-04-09T04:06:12;100645.00;;;7.83;83.51
32298;BME280;18782;48.984;8.548;2023-04-09T04:09:00;100646.03;;;7.69;84.27
32298;BME280;18782;48.984;8.548;2023-04-09T04:11:52;100643.69;;;7.55;84.77
32298;BME280;18782;48.984;8.548;2023-04-09T04:14:24;100644.06;;;7.45;85.31
32298;BME280;18782;48.984;8.548;2023-04-09T04:16:57;100638.34;;;7.33;85.24
32298;BME280;18782;48.984;8.548;2023-04-09T04:19:28;100643.19;;;7.27;85.65
32298;BME280;18782;48.984;8.548;2023-04-09T04:21:56;100646.97;;;7.17;86.16
32298;BME280;18782;48.984;8.548;2023-04-09T04:24:23;100647.38;;;7.09;86.60
32298;BME280;18782;48.984;8.548;2023-04-09T04:26:52;100651.09;;;6.97;86.26
32298;BME280;18782;48.984;8.548;2023-04-09T04:29:21;100649.19;;;6.93;86.21
32298;BME280;18782;48.984;8.548;2023-04-09T04:31:58;100650.50;;;6.85;87.46
32298;BME280;18782;48.984;8.548;2023-04-09T04:34:31;100646.81;;;6.80;87.71
32298;BME280;18782;48.984;8.548;2023-04-09T04:37:06;100648.66;;;6.66;88.12
32298;BME280;18782;48.984;8.548;2023-04-09T04:39:34;100647.50;;;6.60;87.83
32298;BME280;18782;48.984;8.548;2023-04-09T04:42:08;100656.34;;;6.50;87.74
32298;BME280;18782;48.984;8.548;2023-04-09T04:44:36;100643.31;;;6.45;87.79
32298;BME280;18782;48.984;8.548;2023-04-09T04:47:13;100659.06;;;6.37;88.41
32298;BME280;18782;48.984;8.548;2023-04-09T04:49:41;100656.13;;;6.29;88.33
32298;BME280;18782;48.984;8.548;2023-04-09T04:52:09;100652.25;;;6.21;88.17
32298;BME280;18782;48.984;8.548;2023-04-09T04:54:41;100656.34;;;6.17;88.54
32298;BME280;18782;48.984;8.548;2023-04-09T04:57:14;100656.09;;;6.13;87.84
32298;BME280;18782;48.984;8.548;2023-04-09T04:59:42;100654.97;;;6.08;88.64
32298;BME280;18782;48.984;8.548;2023-04-09T05:02:12;100652.91;;;6.00;88.96
32298;BME280;18782;48.984;8.548;2023-04-09T05:05:13;100651.66;;;5.94;88.65
32298;BME280;18782;48.984;8.548;2023-04-09T05:07:46;100654.75;;;5.88;88.60
32298;BME280;18782;48.984;8.548;2023-04-09T05:10:14;100651.69;;;5.79;89.96
32298;BME280;18782;48.984;8.548;2023-04-09T05:12:45;100658.38;;;5.77;89.33
32298;BME280;18782;48.984;8.548;2023-04-09T05:15:20;100661.75;;;5.76;90.43
32298;BME280;18782;48.984;8.548;2023-04-09T05:17:48;100664.13;;;5.73;89.61
32298;BME280;18782;48.984;8.548;2023-04-09T05:20:16;100663.88;;;5.68;90.27
32298;BME280;18782;48.984;8.548;2023-04-09T05:23:01;100660.34;;;5.66;89.25
32298;BME280;18782;48.984;8.548;2023-04-09T05:25:34;100667.06;;;5.64;89.81
32298;BME280;18782;48.984;8.548;2023-04-09T05:28:04;100669.50;;;5.63;89.54
32298;BME280;18782;48.984;8.548;2023-04-09T05:30:33;100665.81;;;5.58;89.73
32298;BME280;18782;48.984;8.548;2023-04-09T05:33:03;100676.03;;;5.58;90.25
32298;BME280;18782;48.984;8.548;2023-04-09T05:35:31;100673.41;;;5.56;90.83
32298;BME280;18782;48.984;8.548;2023-04-09T05:37:59;100674.97;;;5.69;92.68
32298;BME280;18782;48.984;8.548;2023-04-09T05:40:27;100674.59;;;5.78;91.86
32298;BME280;18782;48.984;8.548;2023-04-09T05:42:54;100684.13;;;5.80;90.93
32298;BME280;18782;48.984;8.548;2023-04-09T05:45:34;100678.22;;;5.81;89.52
32298;BME280;18782;48.984;8.548;2023-04-09T05:48:02;100679.72;;;5.78;90.14
32298;BME280;18782;48.984;8.548;2023-04-09T05:50:31;100683.94;;;5.77;89.20
32298;BME280;18782;48.984;8.548;2023-04-09T05:53:13;100670.38;;;5.78;89.30
32298;BME280;18782;48.984;8.548;2023-04-09T05:55:41;100682.34;;;5.79;89.85
32298;BME280;18782;48.984;8.548;2023-04-09T05:58:09;100677.41;;;5.82;89.29
32298;BME280;18782;48.984;8.548;2023-04-09T06:00:38;100677.94;;;5.91;89.46
32298;BME280;18782;48.984;8.548;2023-04-09T06:03:08;100683.72;;;6.04;89.58
32298;BME280;18782;48.984;8.548;2023-04-09T06:05:36;100680.88;;;6.14;89.66
32298;BME280;18782;48.984;8.548;2023-04-09T06:08:05;100679.19;;;6.31;88.86
32298;BME280;18782;48.984;8.548;2023-04-09T06:10:33;100680.81;;;6.45;88.91
32298;BME280;18782;48.984;8.548;2023-04-09T06:13:01;100684.88;;;6.58;88.26
32298;BME280;18782;48.984;8.548;2023-04-09T06:15:28;100684.72;;;6.71;88.53
32298;BME280;18782;48.984;8.548;2023-04-09T06:17:58;100681.84;;;6.81;87.40
32298;BME280;18782;48.984;8.548;2023-04-09T06:20:25;100684.88;;;6.90;86.37
32298;BME280;18782;48.984;8.548;2023-04-09T06:22:53;100689.00;;;7.04;92.08
32298;BME280;18782;48.984;8.548;2023-04-09T06:25:21;100689.78;;;7.03;87.47
32298;BME280;18782;48.984;8.548;2023-04-09T06:27:49;100692.34;;;7.03;87.13
32298;BME280;18782;48.984;8.548;2023-04-09T06:30:17;100688.66;;;7.15;86.92
32298;BME280;18782;48.984;8.548;2023-04-09T06:32:44;100689.91;;;7.23;86.00
32298;BME280;18782;48.984;8.548;2023-04-09T06:35:22;100681.88;;;7.33;85.01
32298;BME280;18782;48.984;8.548;2023-04-09T06:37:49;100688.75;;;7.34;84.74
32298;BME280;18782;48.984;8.548;2023-04-09T06:40:17;100691.97;;;7.30;84.74
32298;BME280;18782;48.984;8.548;2023-04-09T06:42:48;100691.97;;;7.30;85.18
32298;BME280;18782;48.984;8.548;2023-04-09T06:45:21;100689.75;;;7.36;85.55
32298;BME280;18782;48.984;8.548;2023-04-09T06:47:49;100690.69;;;7.38;84.87
32298;BME280;18782;48.984;8.548;2023-04-09T06:50:17;100692.31;;;7.36;85.19
32298;BME280;18782;48.984;8.548;2023-04-09T06:52:46;100690.09;;;7.44;85.40
32298;BME280;18782;48.984;8.548;2023-04-09T06:55:13;100691.44;;;7.53;85.29
32298;BME280;18782;48.984;8.548;2023-04-09T06:57:41;100683.16;;;7.59;85.01
32298;BME280;18782;48.984;8.548;2023-04-09T07:00:10;100689.50;;;7.67;84.77
32298;BME280;18782;48.984;8.548;2023-04-09T07:02:37;100689.13;;;7.77;84.32
32298;BME280;18782;48.984;8.548;2023-04-09T07:05:06;100682.63;;;7.84;84.11
32298;BME280;18782;48.984;8.548;2023-04-09T07:07:34;100683.03;;;7.93;84.26
32298;BME280;18782;48.984;8.548;2023-04-09T07:10:05;100682.88;;;8.08;84.24
32298;BME280;18782;48.984;8.548;2023-04-09T07:12:33;100681.69;;;8.19;83.73
32298;BME280;18782;48.984;8.548;2023-04-09T07:15:03;100679.25;;;8.98;91.56
32298;BME280;18782;48.984;8.548;2023-04-09T07:17:31;100687.84;;;9.40;85.56
32298;BME280;18782;48.984;8.548;2023-04-09T07:19:59;100685.19;;;9.39;79.77
32298;BME280;18782;48.984;8.548;2023-04-09T07:22:28;100685.09;;;9.36;79.37
32298;BME280;18782;48.984;8.548;2023-04-09T07:24:55;100696.28;;;9.38;78.94
32298;BME280;18782;48.984;8.548;2023-04-09T07:27:28;100685.91;;;9.35;78.68
32298;BME280;18782;48.984;8.548;2023-04-09T07:29:56;100689.53;;;9.40;77.98
32298;BME280;18782;48.984;8.548;2023-04-09T07:32:24;100691.41;;;9.44;78.46
32298;BME280;18782;48.984;8.548;2023-04-09T07:34:52;100695.66;;;9.44;78.25
32298;BME280;18782;48.984;8.548;2023-04-09T07:37:20;100703.56;;;9.48;75.55
32298;BME280;18782;48.984;8.548;2023-04-09T07:39:48;100700.88;;;9.45;75.67
32298;BME280;18782;48.984;8.548;2023-04-09T07:42:16;100702.63;;;9.46;76.14
32298;BME280;18782;48.984;8.548;2023-04-09T07:44:45;100703.47;;;9.45;75.86
32298;BME280;18782;48.984;8.548;2023-04-09T07:47:13;100709.66;;;9.50;74.38
32298;BME280;18782;48.984;8.548;2023-04-09T07:49:40;100700.31;;;9.52;74.45
32298;BME280;18782;48.984;8.548;2023-04-09T07:52:08;100705.44;;;9.52;74.90
32298;BME280;18782;48.984;8.548;2023-04-09T07:54:36;100703.94;;;9.57;75.71
32298;BME280;18782;48.984;8.548;2023-04-09T07:57:03;100698.22;;;9.64;74.92
32298;BME280;18782;48.984;8.548;2023-04-09T07:59:31;100701.03;;;9.71;76.16
32298;BME280;18782;48.984;8.548;2023-04-09T08:02:00;100697.28;;;9.83;73.68
32298;BME280;18782;48.984;8.548;2023-04-09T08:04:28;100700.66;;;9.82;72.13
32298;BME280;18782;48.984;8.548;2023-04-09T08:06:56;100701.78;;;9.89;73.08
32298;BME280;18782;48.984;8.548;2023-04-09T08:09:23;100702.88;;;9.96;72.00
32298;BME280;18782;48.984;8.548;2023-04-09T08:11:51;100709.03;;;9.99;72.05
32298;BME280;18782;48.984;8.548;2023-04-09T08:14:18;100701.28;;;9.98;71.39
32298;BME280;18782;48.984;8.548;2023-04-09T08:16:47;100707.38;;;10.01;71.23
32298;BME280;18782;48.984;8.548;2023-04-09T08:19:17;100705.22;;;10.12;71.07
32298;BME280;18782;48.984;8.548;2023-04-09T08:21:45;100708.09;;;10.19;72.09
32298;BME280;18782;48.984;8.548;2023-04-09T08:24:14;100707.09;;;10.16;70.92
32298;BME280;18782;48.984;8.548;2023-04-09T08:26:42;100708.19;;;10.23;71.39
32298;BME280;18782;48.984;8.548;2023-04-09T08:29:11;100711.56;;;10.42;72.05
32298;BME280;18782;48.984;8.548;2023-04-09T08:31:39;100704.78;;;10.44;67.96
32298;BME280;18782;48.984;8.548;2023-04-09T08:34:07;100704.16;;;10.50;67.62
32298;BME280;18782;48.984;8.548;2023-04-09T08:36:37;100714.75;;;10.59;66.46
32298;BME280;18782;48.984;8.548;2023-04-09T08:39:04;100710.81;;;10.69;67.57
32298;BME280;18782;48.984;8.548;2023-04-09T08:41:33;100709.19;;;10.71;66.48
32298;BME280;18782;48.984;8.548;2023-04-09T08:44:02;100711.16;;;10.78;65.75
32298;BME280;18782;48.984;8.548;2023-04-09T08:46:29;100708.88;;;10.86;64.97
32298;BME280;18782;48.984;8.548;2023-04-09T08:48:57;100706.22;;;10.84;63.17
32298;BME280;18782;48.984;8.548;2023-04-09T08:55:38;100710.00;;;10.94;60.61
32298;BME280;18782;48.984;8.548;2023-04-09T08:58:06;100714.03;;;11.11;62.38
32298;BME280;18782;48.984;8.548;2023-04-09T09:00:34;100724.84;;;11.27;62.26
32298;BME280;18782;48.984;8.548;2023-04-09T09:03:09;100716.75;;;11.41;57.97
32298;BME280;18782;48.984;8.548;2023-04-09T09:18:11;100731.53;;;11.98;51.40
32298;BME280;18782;48.984;8.548;2023-04-09T09:20:39;100727.94;;;11.93;48.34
32298;BME280;18782;48.984;8.548;2023-04-09T09:23:08;100721.69;;;12.13;51.28
32298;BME280;18782;48.984;8.548;2023-04-09T09:25:38;100723.88;;;12.30;49.27
32298;BME280;18782;48.984;8.548;2023-04-09T09:28:07;100727.84;;;12.47;49.39
32298;BME280;18782;48.984;8.548;2023-04-09T09:30:36;100721.22;;;12.87;49.35
32298;BME280;18782;48.984;8.548;2023-04-09T09:33:06;100715.63;;;13.03;49.54
32298;BME280;18782;48.984;8.548;2023-04-09T09:35:47;100717.78;;;13.19;48.00
32298;BME280;18782;48.984;8.548;2023-04-09T09:38:16;100708.53;;;13.26;48.50
32298;BME280;18782;48.984;8.548;2023-04-09T09:40:44;100709.09;;;13.16;46.62
32298;BME280;18782;48.984;8.548;2023-04-09T09:43:19;100715.19;;;13.19;45.47
32298;BME280;18782;48.984;8.548;2023-04-09T09:45:49;100713.03;;;13.35;44.81
32298;BME280;18782;48.984;8.548;2023-04-09T09:48:16;100712.13;;;13.32;43.12
32298;BME280;18782;48.984;8.548;2023-04-09T09:50:46;100712.47;;;13.46;43.66
32298;BME280;18782;48.984;8.548;2023-04-09T09:53:16;100712.31;;;13.40;42.90
32298;BME280;18782;48.984;8.548;2023-04-09T09:55:51;100706.78;;;13.61;43.23
32298;BME280;18782;48.984;8.548;2023-04-09T09:58:23;100703.19;;;13.91;43.84
32298;BME280;18782;48.984;8.548;2023-04-09T10:00:54;100707.97;;;14.10;43.47
32298;BME280;18782;48.984;8.548;2023-04-09T10:03:25;100709.00;;;14.20;41.85
32298;BME280;18782;48.984;8.548;2023-04-09T10:05:56;100708.09;;;14.18;40.87
32298;BME280;18782;48.984;8.548;2023-04-09T10:08:27;100715.16;;;14.25;41.16
32298;BME280;18782;48.984;8.548;2023-04-09T10:19:17;100701.66;;;14.40;41.25
32298;BME280;18782;48.984;8.548;2023-04-09T10:21:54;100691.44;;;14.46;40.57
32298;BME280;18782;48.984;8.548;2023-04-09T10:24:24;100700.75;;;14.36;40.42
32298;BME280;18782;48.984;8.548;2023-04-09T10:26:53;100697.84;;;14.22;40.48
32298;BME280;18782;48.984;8.548;2023-04-09T10:29:26;100692.09;;;13.96;42.05
32298;BME280;18782;48.984;8.548;2023-04-09T10:32:04;100693.94;;;14.02;40.91
32298;BME280;18782;48.984;8.548;2023-04-09T10:34:34;100698.63;;;14.18;41.44
32298;BME280;18782;48.984;8.548;2023-04-09T10:37:06;100694.63;;;14.32;40.85
32298;BME280;18782;48.984;8.548;2023-04-09T10:39:38;100685.69;;;14.18;40.54
32298;BME280;18782;48.984;8.548;2023-04-09T10:42:11;100681.38;;;14.59;41.42
32298;BME280;18782;48.984;8.548;2023-04-09T10:44:40;100679.78;;;14.66;40.23
32298;BME280;18782;48.984;8.548;2023-04-09T10:47:08;100684.28;;;14.75;39.73
32298;BME280;18782;48.984;8.548;2023-04-09T10:49:38;100674.59;;;14.65;39.64
32298;BME280;18782;48.984;8.548;2023-04-09T10:52:08;100671.34;;;14.76;39.67
32298;BME280;18782;48.984;8.548;2023-04-09T10:54:39;100672.63;;;14.98;39.25
32298;BME280;18782;48.984;8.548;2023-04-09T10:57:10;100673.53;;;15.02;39.79
32298;BME280;18782;48.984;8.548;2023-04-09T10:59:40;100680.84;;;15.24;39.49
32298;BME280;18782;48.984;8.548;2023-04-09T11:02:13;100673.50;;;14.99;39.48
32298;BME280;18782;48.984;8.548;2023-04-09T11:04:55;100674.66;;;15.16;41.04
32298;BME280;18782;48.984;8.548;2023-04-09T11:07:32;100676.50;;;15.23;40.02
32298;BME280;18782;48.984;8.548;2023-04-09T11:10:02;100672.56;;;14.95;40.48
32298;BME280;18782;48.984;8.548;2023-04-09T11:12:29;100668.53;;;15.11;40.33
32298;BME280;18782;48.984;8.548;2023-04-09T11:14:57;100662.06;;;15.37;41.83
32298;BME280;18782;48.984;8.548;2023-04-09T11:17:25;100672.28;;;15.28;40.11
32298;BME280;18782;48.984;8.548;2023-04-09T11:19:53;100670.28;;;15.12;39.20
32298;BME280;18782;48.984;8.548;2023-04-09T11:22:21;100671.19;;;15.14;38.47
32298;BME280;18782;48.984;8.548;2023-04-09T11:24:52;100672.13;;;15.19;38.97
32298;BME280;18782;48.984;8.548;2023-04-09T11:27:20;100668.47;;;15.08;38.13
32298;BME280;18782;48.984;8.548;2023-04-09T11:29:47;100654.41;;;14.94;40.40
32298;BME280;18782;48.984;8.548;2023-04-09T11:32:15;100663.41;;;15.14;40.39
32298;BME280;18782;48.984;8.548;2023-04-09T11:34:43;100663.47;;;15.19;38.93
32298;BME280;18782;48.984;8.548;2023-04-09T11:37:13;100659.63;;;15.47;37.97
32298;BME280;18782;48.984;8.548;2023-04-09T11:39:42;100661.63;;;15.63;39.17
32298;BME280;18782;48.984;8.548;2023-04-09T11:42:14;100658.63;;;15.95;38.64
32298;BME280;18782;48.984;8.548;2023-04-09T11:44:43;100659.78;;;16.15;37.98
32298;BME280;18782;48.984;8.548;2023-04-09T11:47:12;100652.19;;;16.32;38.22
32298;BME280;18782;48.984;8.548;2023-04-09T11:49:40;100647.16;;;16.46;37.16
32298;BME280;18782;48.984;8.548;2023-04-09T11:52:08;100650.22;;;16.85;35.64
32298;BME280;18782;48.984;8.548;2023-04-09T11:54:36;100651.69;;;16.62;34.72
32298;BME280;18782;48.984;8.548;2023-04-09T11:57:04;100641.59;;;16.89;35.47
32298;BME280;18782;48.984;8.548;2023-04-09T11:59:33;100650.50;;;17.13;35.72
32298;BME280;18782;48.984;8.548;2023-04-09T12:02:05;100647.72;;;16.94;34.88
32298;BME280;18782;48.984;8.548;2023-04-09T12:04:33;100652.19;;;17.08;35.69
32298;BME280;18782;48.984;8.548;2023-04-09T12:07:00;100652.00;;;16.89;35.76
32298;BME280;18782;48.984;8.548;2023-04-09T12:09:28;100656.09;;;16.69;36.98
32298;BME280;18782;48.984;8.548;2023-04-09T12:11:58;100650.47;;;16.32;36.16
32298;BME280;18782;48.984;8.548;2023-04-09T12:14:27;100664.44;;;16.43;35.27
32298;BME280;18782;48.984;8.548;2023-04-09T12:16:56;100648.41;;;16.78;35.66
32298;BME280;18782;48.984;8.548;2023-04-09T12:19:24;100648.81;;;17.21;35.18
32298;BME280;18782;48.984;8.548;2023-04-09T12:21:54;100645.47;;;17.36;34.59
32298;BME280;18782;48.984;8.548;2023-04-09T12:24:24;100645.72;;;17.68;33.69
32298;BME280;18782;48.984;8.548;2023-04-09T12:26:53;100645.91;;;17.92;34.68
32298;BME280;18782;48.984;8.548;2023-04-09T12:29:21;100646.81;;;17.97;33.91
32298;BME280;18782;48.984;8.548;2023-04-09T12:31:51;100640.34;;;17.46;32.21
32298;BME280;18782;48.984;8.548;2023-04-09T12:34:20;100638.66;;;17.52;32.38
32298;BME280;18782;48.984;8.548;2023-04-09T12:36:48;100642.56;;;18.18;31.42
32298;BME280;18782;48.984;8.548;2023-04-09T12:39:15;100621.03;;;18.78;30.47
32298;BME280;18782;48.984;8.548;2023-04-09T12:41:43;100623.69;;;18.92;29.48
32298;BME280;18782;48.984;8.548;2023-04-09T12:44:11;100625.44;;;19.39;30.13
32298;BME280;18782;48.984;8.548;2023-04-09T12:46:38;100620.00;;;20.31;30.27
32298;BME280;18782;48.984;8.548;2023-04-09T12:49:06;100616.91;;;21.09;28.50
32298;BME280;18782;48.984;8.548;2023-04-09T12:51:35;100629.53;;;21.67;26.75
32298;BME280;18782;48.984;8.548;2023-04-09T12:54:02;100622.44;;;22.49;27.25
32298;BME280;18782;48.984;8.548;2023-04-09T12:56:30;100629.78;;;22.89;25.75
32298;BME280;18782;48.984;8.548;2023-04-09T12:58:58;100618.03;;;22.50;25.40
32298;BME280;18782;48.984;8.548;2023-04-09T13:01:26;100618.41;;;22.88;26.01
32298;BME280;18782;48.984;8.548;2023-04-09T13:03:53;100618.63;;;23.29;26.09
32298;BME280;18782;48.984;8.548;2023-04-09T13:06:21;100613.28;;;23.83;24.65
32298;BME280;18782;48.984;8.548;2023-04-09T13:08:50;100608.66;;;24.39;24.00
32298;BME280;18782;48.984;8.548;2023-04-09T13:11:18;100606.66;;;24.50;23.48
32298;BME280;18782;48.984;8.548;2023-04-09T13:13:45;100602.38;;;24.83;23.94
32298;BME280;18782;48.984;8.548;2023-04-09T13:16:13;100592.16;;;25.08;23.63
32298;BME280;18782;48.984;8.548;2023-04-09T13:18:41;100601.50;;;25.87;23.28
32298;BME280;18782;48.984;8.548;2023-04-09T13:21:09;100601.38;;;26.80;20.88
32298;BME280;18782;48.984;8.548;2023-04-09T13:23:38;100604.56;;;26.90;21.32
32298;BME280;18782;48.984;8.548;2023-04-09T13:26:07;100597.34;;;26.39;20.32
32298;BME280;18782;48.984;8.548;2023-04-09T13:28:34;100594.00;;;25.03;21.03
32298;BME280;18782;48.984;8.548;2023-04-09T13:31:04;100590.91;;;24.05;22.84
32298;BME280;18782;48.984;8.548;2023-04-09T13:33:31;100586.41;;;24.52;22.20
32298;BME280;18782;48.984;8.548;2023-04-09T13:35:59;100584.19;;;25.10;22.19